This is the latest recevied weather packets stored in our database for station/object AC8UJ. If no packets are shown the sender has not sent any weather packets the latest 10 day(s).
| Time | Temp. | Humidity | Pressure | Rain* | Wind** | Luminosity | Snow |
|---|---|---|---|---|---|---|---|
| 1777711217 | 2.78° C | 82% | - | 0 mm | - | - | - |
| 1777710615 | 3.33° C | 82% | - | 0 mm | - | - | - |
| 1777709417 | 3.89° C | 81% | - | 0 mm | - | - | - |
| 1777705219 | 3.89° C | 81% | - | 0 mm | - | - | - |
| 1777700417 | 4.44° C | 81% | - | 0 mm | - | - | - |
| 1777694417 | 5.56° C | 77% | - | 0 mm | - | - | - |
| 1777693816 | 5.56° C | 76% | - | 0 mm | - | - | - |
| 1777692616 | 5.56° C | 76% | - | 0 mm | - | - | - |
| 1777691417 | 5.56° C | 74% | - | 0 mm | - | - | - |
| 1777690817 | 6.11° C | 73% | - | 0 mm | - | - | - |
| 1777688417 | 7.22° C | 69% | - | 0 mm | - | - | - |
| 1777672216 | 11.67° C | 56% | - | 0 mm | - | - | - |
| 1777670417 | 11.67° C | 56% | - | 0 mm | - | - | - |
| 1777668016 | 12.22° C | 57% | - | 0 mm | - | - | - |
| 1777665018 | 12.22° C | 57% | - | 0 mm | - | - | - |
| 1777664416 | 12.22° C | 56% | - | 0 mm | - | - | - |
| 1777650017 | 11.67° C | 76% | - | 0 mm | - | - | - |
| 1777643416 | 10° C | 71% | - | 0 mm | - | - | - |
| 1777642816 | 10° C | 69% | - | 0 mm | - | - | - |
| 1777639236 | 10° C | 65% | - | 0 mm | - | - | - |
| 1777638616 | 10° C | 64% | - | 0 mm | - | - | - |
| 1777637439 | 10° C | 63% | - | 0 mm | - | - | - |
| 1777636216 | 10° C | 62% | - | 0 mm | - | - | - |
| 1777633217 | 10.56° C | 59% | - | 0 mm | - | - | - |
| 1777630216 | 10° C | 59% | - | 0 mm | - | - | - |
* Rain latest hour (hover to see other rain measurements)
** Current wind speed in m/s (hover to see current wind gust speed)